Time;durP1;ratioP1;P1;durP2;ratioP2;P2;SDS_P1;SDS_P2;PMS_P1;PMS_P2;Temp;Humidity;BMP_temperature;BMP_pressure;BME280_temperature;BME280_humidity;BME280_pressure;Samples;Min_cycle;Max_cycle;Signal;HPM_P1;HPM_P2
2021/06/17 00:00:30;;;;;;;3.50;3.20;;;26.70;44.30;;;30.40;29.57;101136.56;5156401;27;20086;-49
2021/06/17 00:02:56;;;;;;;2.90;2.70;;;26.70;44.40;;;30.41;29.51;101132.88;5137165;27;20556;-50
2021/06/17 00:05:31;;;;;;;4.07;2.60;;;26.70;44.40;;;30.38;29.48;101131.31;5155985;27;20053;-48
2021/06/17 00:07:58;;;;;;;3.10;2.80;;;26.60;44.30;;;30.37;29.49;101126.94;5156875;27;20047;-51
2021/06/17 00:10:38;;;;;;;2.83;2.47;;;26.70;44.40;;;30.36;29.67;101118.97;5156301;27;20079;-51
2021/06/17 00:13:10;;;;;;;3.10;2.67;;;26.60;44.30;;;30.36;29.62;101117.13;5139238;27;20047;-51
2021/06/17 00:15:37;;;;;;;3.28;2.97;;;26.70;44.50;;;30.38;29.38;101119.69;5156345;27;20043;-47
2021/06/17 00:18:04;;;;;;;3.17;2.85;;;26.60;44.40;;;30.36;29.58;101118.97;5156510;27;20042;-53
2021/06/17 00:20:31;;;;;;;2.90;2.70;;;26.60;44.40;;;30.33;29.52;101113.84;5156550;27;20079;-54
2021/06/17 00:22:57;;;;;;;3.10;2.90;;;26.60;44.50;;;30.32;29.59;101115.69;5156001;27;20047;-54
2021/06/17 00:25:24;;;;;;;3.30;3.00;;;26.60;44.50;;;30.30;29.58;101107.78;5155939;27;20399;-48
2021/06/17 00:27:50;;;;;;;3.92;3.15;;;26.60;44.50;;;30.30;29.49;101115.00;5156016;27;20084;-49
2021/06/17 00:30:17;;;;;;;2.85;2.65;;;26.60;44.50;;;30.32;29.71;101117.53;5155789;27;20454;-53
2021/06/17 00:32:43;;;;;;;2.72;2.53;;;26.60;44.50;;;30.32;29.75;101114.84;5136574;27;20068;-52
2021/06/17 00:35:09;;;;;;;3.20;2.90;;;26.60;44.50;;;30.29;29.66;101116.00;5155917;27;20039;-51
2021/06/17 00:37:36;;;;;;;3.22;2.92;;;26.60;44.60;;;30.27;29.71;101121.56;5155885;27;20496;-49
2021/06/17 00:40:05;;;;;;;3.20;2.90;;;26.50;44.50;;;30.29;29.79;101124.09;5155611;27;20042;-52
2021/06/17 00:42:32;;;;;;;3.38;2.63;;;26.50;44.50;;;30.28;29.63;101115.16;5155715;27;20050;-53
2021/06/17 00:44:58;;;;;;;3.05;2.80;;;26.50;44.60;;;30.25;29.78;101114.59;5137416;27;20387;-47
2021/06/17 00:47:23;;;;;;;3.45;2.50;;;26.50;44.60;;;30.24;29.63;101113.75;5155644;27;20047;-52
2021/06/17 00:49:49;;;;;;;2.83;2.60;;;26.50;44.60;;;30.24;29.73;101111.06;5155981;27;20046;-49
2021/06/17 00:52:15;;;;;;;2.92;2.40;;;26.50;44.60;;;30.24;29.72;101116.47;5155624;27;20061;-55
2021/06/17 00:54:41;;;;;;;2.80;2.60;;;26.50;44.60;;;30.23;29.73;101113.91;5155345;27;20050;-51
2021/06/17 00:57:09;;;;;;;3.45;2.80;;;26.50;44.60;;;30.23;29.99;101113.91;5155723;27;20053;-51
2021/06/17 00:59:36;;;;;;;2.85;2.60;;;26.50;44.60;;;30.20;29.70;101109.66;5155381;27;20468;-51
2021/06/17 01:02:03;;;;;;;3.28;2.95;;;26.50;44.60;;;30.18;29.69;101106.25;5155300;27;20080;-49
2021/06/17 01:04:30;;;;;;;3.08;2.70;;;26.50;44.70;;;30.20;29.90;101111.50;5155534;27;20070;-52
2021/06/17 01:06:57;;;;;;;3.75;2.60;;;26.50;44.70;;;30.18;29.78;101110.81;5155460;27;20087;-48
2021/06/17 01:10:05;;;;;;;2.80;2.60;;;26.40;44.60;;;30.18;29.76;101111.66;5155392;27;20433;-51
2021/06/17 01:12:52;;;;;;;2.58;2.38;;;26.40;44.70;;;30.16;29.85;101113.66;5137395;27;20051;-51
2021/06/17 01:15:21;;;;;;;2.83;2.63;;;26.40;44.70;;;30.14;29.91;101099.50;5117854;27;20412;-48
2021/06/17 01:18:05;;;;;;;3.33;2.63;;;26.40;44.80;;;30.11;29.91;101097.94;5135617;27;20134;-52
2021/06/17 01:20:48;;;;;;;3.25;2.95;;;26.40;44.70;;;30.13;29.89;101100.47;5136791;27;20050;-55
2021/06/17 01:23:50;;;;;;;2.80;2.50;;;26.40;44.70;;;30.11;29.87;101102.47;5155067;27;20070;-48
2021/06/17 01:27:00;;;;;;;2.58;2.33;;;26.40;44.80;;;30.12;29.77;101101.47;5136595;27;20042;-54
2021/06/17 01:29:29;;;;;;;2.80;2.50;;;26.30;44.80;;;30.13;29.80;101095.09;5074034;27;20046;-53
2021/06/17 01:31:55;;;;;;;2.60;2.40;;;26.40;44.80;;;30.11;29.66;101086.31;5134437;27;20062;-49
2021/06/17 01:34:22;;;;;;;2.67;2.47;;;26.40;44.80;;;30.09;29.80;101091.84;5136665;27;20084;-49
2021/06/17 01:37:01;;;;;;;2.42;2.15;;;26.30;44.80;;;30.09;29.91;101091.00;5154874;27;20043;-48
2021/06/17 01:39:28;;;;;;;2.58;2.38;;;26.40;44.90;;;30.07;29.97;101088.44;5154882;27;20566;-52
2021/06/17 01:41:54;;;;;;;2.72;2.47;;;26.30;44.80;;;30.09;29.87;101089.16;5136191;27;20050;-49
2021/06/17 01:44:22;;;;;;;3.28;2.55;;;26.30;44.80;;;30.07;29.89;101091.16;5136255;27;20080;-53
2021/06/17 01:46:49;;;;;;;2.40;2.20;;;26.30;44.80;;;30.08;29.81;101081.19;5119126;27;20091;-51
2021/06/17 01:49:17;;;;;;;3.00;2.63;;;26.30;44.80;;;30.05;29.78;101079.63;5134624;27;20058;-50
2021/06/17 01:51:45;;;;;;;2.78;2.53;;;26.30;44.80;;;30.03;29.90;101081.66;5134406;27;20077;-52
2021/06/17 01:54:21;;;;;;;3.03;2.53;;;26.30;44.90;;;30.02;29.87;101082.66;5154590;27;20078;-47
2021/06/17 01:56:49;;;;;;;2.60;2.40;;;26.30;44.90;;;30.05;29.99;101092.28;5154956;27;20042;-52
2021/06/17 01:59:16;;;;;;;2.97;2.50;;;26.30;44.90;;;30.05;30.02;101078.81;5136166;27;20134;-52
2021/06/17 02:01:43;;;;;;;2.80;2.50;;;26.30;44.90;;;29.99;29.97;101060.53;5133792;27;20051;-51
2021/06/17 02:04:09;;;;;;;2.45;2.25;;;26.30;44.90;;;30.01;29.77;101074.72;5135932;27;20043;-48
2021/06/17 02:06:35;;;;;;;2.45;2.25;;;26.20;44.90;;;30.00;29.93;101070.31;5154421;27;20609;-50
2021/06/17 02:09:05;;;;;;;2.88;2.40;;;26.30;45.00;;;30.01;30.27;101077.41;5154449;27;20046;-49
2021/06/17 02:11:32;;;;;;;2.92;2.58;;;26.20;44.90;;;30.00;29.87;101076.53;5135712;27;20047;-49
2021/06/17 02:14:00;;;;;;;2.88;2.60;;;26.30;45.00;;;30.00;30.11;101081.94;5135825;27;20041;-49
2021/06/17 02:16:29;;;;;;;3.25;2.72;;;26.20;44.90;;;29.99;30.02;101084.78;5154316;27;20184;-52
2021/06/17 02:18:57;;;;;;;2.58;2.38;;;26.20;44.90;;;29.98;30.08;101083.09;5154001;27;20129;-48
2021/06/17 02:21:30;;;;;;;2.60;2.22;;;26.20;45.00;;;29.99;30.07;101082.09;5154044;27;20039;-48
2021/06/17 02:24:00;;;;;;;2.55;2.22;;;26.20;45.00;;;29.97;30.09;101086.78;5135699;27;20433;-50
2021/06/17 02:26:27;;;;;;;2.80;2.60;;;26.20;45.00;;;29.97;30.03;101076.00;5134704;27;20046;-50
2021/06/17 02:28:54;;;;;;;2.75;2.55;;;26.20;45.00;;;29.94;29.95;101082.56;5135879;27;20043;-50
2021/06/17 02:31:29;;;;;;;2.78;2.58;;;26.20;45.00;;;29.91;30.16;101075.59;5134308;27;20046;-45
2021/06/17 02:33:55;;;;;;;2.65;2.45;;;26.20;45.00;;;29.96;29.93;101080.56;5134896;27;20057;-48
2021/06/17 02:36:26;;;;;;;3.10;2.75;;;26.20;45.00;;;29.95;30.09;101075.31;5153977;27;20043;-48
2021/06/17 02:39:03;;;;;;;2.95;2.40;;;26.20;45.00;;;29.90;30.15;101076.63;5153835;27;20051;-49
2021/06/17 02:41:33;;;;;;;2.25;2.05;;;26.20;45.10;;;29.92;30.19;101071.06;5154501;27;20176;-50
2021/06/17 02:43:59;;;;;;;2.90;2.55;;;26.10;45.00;;;29.95;29.98;101075.31;5135435;27;20035;-47
2021/06/17 02:46:28;;;;;;;2.75;2.55;;;26.10;45.00;;;29.90;30.25;101063.16;5135255;27;20049;-50
2021/06/17 02:48:57;;;;;;;2.78;2.35;;;26.10;45.00;;;29.92;30.07;101065.66;5154372;27;20050;-47
2021/06/17 02:51:24;;;;;;;2.78;2.50;;;26.20;45.10;;;29.89;30.27;101057.91;5153588;27;20039;-46
2021/06/17 02:53:50;;;;;;;2.20;2.00;;;26.10;45.00;;;29.87;30.07;101055.34;5153513;27;20050;-45
2021/06/17 02:56:41;;;;;;;2.72;2.47;;;26.10;45.00;;;29.87;30.02;101055.34;5153813;27;20492;-45
2021/06/17 02:59:13;;;;;;;;;;;26.10;45.10;;;30.00;29.90;101057.66;5154101;27;20049;-47
2021/06/17 03:01:52;;;;;;;2.30;2.10;;;26.10;45.10;;;29.90;30.12;101057.75;5135063;27;20363;-44
2021/06/17 03:04:34;;;;;;;2.38;2.17;;;26.10;45.00;;;29.88;30.00;101054.34;5135273;27;20078;-51
2021/06/17 03:07:01;;;;;;;2.63;2.35;;;26.10;45.10;;;29.85;30.14;101049.22;5134123;27;20130;-47
2021/06/17 03:09:37;;;;;;;2.35;2.10;;;26.10;45.10;;;29.85;30.28;101054.63;5153553;27;20050;-51
2021/06/17 03:12:04;;;;;;;3.25;2.35;;;26.10;45.10;;;29.86;30.03;101055.50;5135395;27;20053;-51
2021/06/17 03:14:35;;;;;;;2.47;2.08;;;26.10;45.10;;;29.87;30.16;101059.88;5134418;27;20055;-54
2021/06/17 03:17:02;;;;;;;2.17;2.05;;;26.10;45.10;;;29.88;30.16;101054.34;5153626;27;20046;-52
2021/06/17 03:19:30;;;;;;;2.30;2.10;;;26.10;45.10;;;29.88;29.91;101053.50;5133945;27;20051;-50
2021/06/17 03:22:02;;;;;;;2.60;2.20;;;26.10;45.10;;;29.86;30.01;101050.09;5133445;27;20051;-49
2021/06/17 03:24:31;;;;;;;2.42;2.22;;;26.10;45.10;;;29.90;29.98;101046.97;5153518;27;20043;-51
2021/06/17 03:26:59;;;;;;;2.20;2.00;;;26.20;45.10;;;29.91;30.09;101054.03;5133452;27;20051;-52
2021/06/17 03:29:32;;;;;;;1.80;1.70;;;26.20;45.00;;;29.91;30.09;101051.34;5116068;27;20051;-46
2021/06/17 03:32:01;;;;;;;2.28;2.10;;;26.20;45.00;;;29.95;29.91;101056.44;5134830;27;20078;-50
2021/06/17 03:34:29;;;;;;;2.25;2.05;;;26.20;45.00;;;29.97;30.12;101063.41;5134963;27;20069;-52
2021/06/17 03:36:57;;;;;;;2.35;2.15;;;26.20;44.90;;;30.01;29.86;101072.88;5132481;27;20050;-45
2021/06/17 03:39:23;;;;;;;1.98;1.88;;;26.30;44.80;;;30.02;29.98;101060.22;5136045;27;20107;-52
2021/06/17 03:41:51;;;;;;;2.75;2.20;;;26.30;44.70;;;30.09;29.75;101067.56;5138240;27;20039;-50
2021/06/17 03:44:17;;;;;;;2.25;1.95;;;26.30;44.60;;;30.13;29.94;101072.66;5156709;27;20479;-50
2021/06/17 03:46:45;;;;;;;2.20;2.00;;;26.40;44.60;;;30.13;29.81;101065.41;5157041;27;20042;-45
2021/06/17 03:49:12;;;;;;;2.15;1.95;;;26.40;44.60;;;30.16;29.81;101062.44;5138578;27;20047;-47
2021/06/17 03:51:39;;;;;;;2.47;2.28;;;26.50;44.50;;;30.22;29.53;101058.25;5156641;27;20442;-47
2021/06/17 03:54:06;;;;;;;2.30;2.10;;;26.50;44.50;;;30.27;29.78;101064.03;5137368;27;20088;-49
2021/06/17 03:56:32;;;;;;;2.30;2.10;;;26.50;44.40;;;30.32;29.56;101064.44;5156803;27;20139;-46
2021/06/17 03:58:58;;;;;;;2.53;2.10;;;26.60;44.40;;;30.35;29.51;101057.91;5156436;27;20146;-49
2021/06/17 04:01:24;;;;;;;2.30;2.10;;;26.60;44.30;;;30.38;29.57;101055.78;5137770;27;20053;-47
2021/06/17 04:03:51;;;;;;;1.90;1.80;;;26.60;44.20;;;30.41;29.59;101054.63;5156579;27;20043;-51
2021/06/17 04:06:17;;;;;;;2.20;2.00;;;26.70;44.20;;;30.46;29.50;101060.41;5138288;27;20058;-50
2021/06/17 04:08:48;;;;;;;2.22;2.03;;;26.70;44.10;;;30.49;29.24;101057.41;5155948;27;20047;-51
2021/06/17 04:11:15;;;;;;;2.05;1.80;;;26.80;44.10;;;30.55;29.28;101053.25;5156380;27;20475;-48
2021/06/17 04:13:44;;;;;;;1.83;1.73;;;26.80;43.90;;;30.58;29.28;101051.09;5136977;27;20130;-49
2021/06/17 04:16:17;;;;;;;1.80;1.70;;;26.80;43.90;;;30.62;29.22;101052.47;5138370;27;20042;-53
2021/06/17 04:18:45;;;;;;;1.98;1.80;;;26.90;43.80;;;30.69;29.00;101050.00;5136883;27;20047;-52
2021/06/17 04:21:13;;;;;;;1.92;1.73;;;26.90;43.70;;;30.74;29.17;101050.41;5137599;27;20117;-49
2021/06/17 04:23:42;;;;;;;1.95;1.85;;;27.00;43.70;;;30.79;28.97;101056.16;5135795;27;20134;-52
2021/06/17 04:26:09;;;;;;;2.00;1.90;;;27.00;43.70;;;30.84;29.00;101045.75;5135416;27;20115;-49
2021/06/17 04:28:35;;;;;;;2.00;1.80;;;27.00;43.60;;;30.88;28.89;101057.09;5136857;27;20054;-49
2021/06/17 04:31:02;;;;;;;2.25;1.88;;;27.00;43.60;;;30.91;28.88;101048.69;5156030;27;20095;-51
2021/06/17 04:33:29;;;;;;;1.80;1.70;;;27.10;43.60;;;30.91;28.87;101048.69;5135612;27;20055;-52
2021/06/17 04:36:00;;;;;;;1.83;1.73;;;27.10;43.50;;;30.98;28.85;101052.47;5155902;27;20042;-48
2021/06/17 04:38:26;;;;;;;2.08;1.88;;;27.10;43.50;;;31.06;28.73;101049.00;5155877;27;20130;-47
2021/06/17 04:40:53;;;;;;;2.17;1.83;;;27.20;43.50;;;31.10;28.63;101046.81;5155761;27;20110;-45
2021/06/17 04:43:23;;;;;;;2.20;2.00;;;27.20;43.40;;;31.13;28.82;101050.03;5155686;27;20054;-48
2021/06/17 04:45:53;;;;;;;1.80;1.70;;;27.30;43.40;;;31.18;28.65;101046.88;5137483;27;20039;-45
2021/06/17 04:48:23;;;;;;;3.65;1.90;;;27.30;43.30;;;31.24;28.59;101045.38;5155944;27;20047;-50
2021/06/17 04:50:48;;;;;;;1.90;1.77;;;27.40;43.30;;;31.27;28.44;101037.81;5155064;27;20488;-52
2021/06/17 04:53:17;;;;;;;1.95;1.85;;;27.40;43.20;;;31.31;28.50;101036.50;5155731;27;20038;-50
2021/06/17 04:55:45;;;;;;;3.05;1.95;;;27.40;43.10;;;31.39;28.44;101044.66;5155602;27;20134;-53
2021/06/17 04:58:11;;;;;;;1.73;1.63;;;27.50;43.10;;;31.43;28.35;101039.78;5155488;27;20038;-48
2021/06/17 05:00:37;;;;;;;2.05;1.90;;;27.50;43.10;;;31.45;28.14;101034.22;5136940;27;20051;-51
2021/06/17 05:03:03;;;;;;;1.80;1.70;;;27.60;43.00;;;31.48;28.16;101033.88;5155451;27;20047;-50
2021/06/17 05:05:29;;;;;;;1.70;1.60;;;27.60;42.90;;;31.53;28.28;101034.28;5136849;27;20055;-50
2021/06/17 05:13:36;;;;;;;1.63;1.52;;;27.70;42.80;;;31.65;28.00;101049.19;5155563;27;20126;-48
2021/06/17 05:16:03;;;;;;;1.80;1.70;;;27.80;42.80;;;31.68;27.80;101043.47;5155149;27;20042;-48
2021/06/17 05:18:29;;;;;;;2.03;1.70;;;27.80;42.70;;;31.72;27.65;101044.00;5136096;27;20405;-53
2021/06/17 05:20:57;;;;;;;1.67;1.58;;;27.80;42.70;;;31.74;28.01;101039.25;5136376;27;20484;-51
2021/06/17 05:23:23;;;;;;;2.40;1.70;;;27.80;42.60;;;31.76;27.72;101048.91;5154842;27;20047;-52
2021/06/17 05:25:51;;;;;;;1.75;1.65;;;27.90;42.70;;;31.81;28.24;101053.84;5155085;27;20068;-49
2021/06/17 05:28:21;;;;;;;1.80;1.65;;;27.90;42.60;;;31.84;27.60;101042.69;5154832;27;20043;-51
2021/06/17 05:30:49;;;;;;;2.15;1.92;;;27.90;42.60;;;31.83;27.90;101049.13;5154965;27;20090;-53
2021/06/17 05:33:15;;;;;;;1.70;1.60;;;27.90;42.50;;;31.89;27.65;101059.28;5154770;27;20205;-48
2021/06/17 05:35:41;;;;;;;1.85;1.65;;;27.90;42.50;;;31.92;27.85;101060.81;5154756;27;20610;-50
2021/06/17 05:38:07;;;;;;;1.80;1.70;;;27.90;42.50;;;31.92;27.76;101050.00;5154669;27;20050;-53
2021/06/17 05:40:33;;;;;;;1.50;1.40;;;28.00;42.50;;;31.95;27.69;101047.81;5154626;27;20102;-47
2021/06/17 05:42:59;;;;;;;2.53;1.70;;;28.00;42.50;;;31.96;27.76;101045.97;5154545;27;20053;-48
2021/06/17 05:45:24;;;;;;;1.60;1.50;;;28.00;42.40;;;31.95;27.72;101041.56;5154858;27;20449;-46
2021/06/17 05:47:50;;;;;;;2.00;1.80;;;28.00;42.40;;;32.01;27.51;101051.72;5154673;27;20057;-51
2021/06/17 05:50:16;;;;;;;1.88;1.77;;;28.00;42.40;;;32.00;27.56;101052.72;5154489;27;20051;-51
2021/06/17 05:52:42;;;;;;;1.60;1.50;;;28.10;42.30;;;32.03;27.82;101051.56;5154546;27;20403;-51
2021/06/17 05:55:08;;;;;;;1.90;1.80;;;28.10;42.30;;;32.09;27.53;101057.19;5154834;27;20440;-46
2021/06/17 05:57:37;;;;;;;1.40;1.30;;;28.10;42.20;;;32.09;27.37;101059.91;5154863;27;20454;-46
2021/06/17 06:00:08;;;;;;;1.60;1.50;;;28.20;42.20;;;32.11;27.60;101060.56;5154389;27;20038;-49
2021/06/17 06:02:35;;;;;;;1.48;1.38;;;28.20;42.10;;;32.16;27.66;101057.38;5153352;27;20395;-53
2021/06/17 06:05:02;;;;;;;1.67;1.58;;;28.30;42.10;;;32.21;27.36;101062.28;5154393;27;20381;-47
2021/06/17 06:07:28;;;;;;;2.45;1.60;;;28.30;42.10;;;32.22;27.45;101064.81;5135830;27;20588;-50
2021/06/17 06:09:53;;;;;;;1.60;1.50;;;28.40;42.00;;;32.24;27.25;101062.78;5154468;27;20059;-51
2021/06/17 06:12:19;;;;;;;1.67;1.38;;;28.40;41.90;;;32.33;27.14;101077.22;5135602;27;20051;-48
2021/06/17 06:14:45;;;;;;;2.00;1.75;;;28.40;41.80;;;32.35;27.15;101080.59;5154242;27;20514;-51
2021/06/17 06:17:11;;;;;;;2.13;1.70;;;28.50;41.70;;;32.41;27.33;101079.06;5154360;27;20046;-53
2021/06/17 06:19:37;;;;;;;1.73;1.60;;;28.50;41.60;;;32.42;27.18;101078.91;5154048;27;20038;-49
2021/06/17 06:22:05;;;;;;;1.83;1.60;;;28.60;41.60;;;32.46;26.91;101074.88;5154064;27;20073;-51
2021/06/17 06:24:33;;;;;;;1.60;1.50;;;28.70;41.60;;;32.46;27.32;101060.47;5154587;27;20468;-51
2021/06/17 06:27:00;;;;;;;1.65;1.55;;;28.70;41.40;;;32.52;27.13;101065.22;5135551;27;20046;-54
2021/06/17 06:29:27;;;;;;;2.00;1.77;;;28.80;41.40;;;32.59;26.87;101068.09;5154164;27;20046;-52
2021/06/17 06:31:53;;;;;;;1.88;1.70;;;28.80;41.40;;;32.63;26.87;101080.34;5154617;27;20046;-51
2021/06/17 06:34:18;;;;;;;2.97;1.75;;;28.80;41.30;;;32.64;26.95;101071.19;5154285;27;20125;-52
2021/06/17 06:36:44;;;;;;;1.60;1.50;;;28.90;41.20;;;32.71;26.92;101074.06;5153774;27;20055;-49
2021/06/17 06:39:10;;;;;;;2.03;1.85;;;28.90;41.10;;;32.71;26.63;101074.91;5153826;27;20042;-53
2021/06/17 06:41:37;;;;;;;2.63;1.70;;;28.90;41.00;;;32.78;26.73;101081.38;5153704;27;20050;-50
2021/06/17 06:44:03;;;;;;;1.83;1.73;;;29.00;41.00;;;32.78;26.50;101081.38;5153790;27;20060;-51
2021/06/17 06:46:31;;;;;;;1.63;1.52;;;29.00;41.00;;;32.83;26.57;101089.81;5153773;27;20043;-49
2021/06/17 06:48:59;;;;;;;1.77;1.67;;;29.10;41.00;;;32.84;26.83;101082.53;5153690;27;20102;-49
2021/06/17 06:51:25;;;;;;;1.70;1.60;;;29.10;40.90;;;32.90;26.22;101092.69;5153713;27;20572;-49
2021/06/17 06:53:51;;;;;;;1.60;1.50;;;29.10;40.80;;;32.89;26.49;101084.75;5153484;27;20423;-49
2021/06/17 06:56:17;;;;;;;2.13;1.60;;;29.20;40.80;;;32.93;26.18;101084.25;5153689;27;20129;-48
2021/06/17 06:58:43;;;;;;;1.83;1.65;;;29.20;40.70;;;32.99;26.72;101094.38;5153367;27;20514;-46
2021/06/17 07:01:08;;;;;;;1.70;1.60;;;29.20;40.70;;;33.02;26.26;101087.78;5153495;27;20534;-48
2021/06/17 07:03:34;;;;;;;1.70;1.60;;;29.30;40.70;;;33.08;26.16;101091.66;5153508;27;20397;-51
2021/06/17 07:06:00;;;;;;;1.77;1.67;;;29.30;40.60;;;33.10;25.96;101098.63;5153550;27;20042;-55
2021/06/17 07:08:26;;;;;;;2.00;1.80;;;29.30;40.50;;;33.12;26.28;101102.00;5153470;27;20103;-51
2021/06/17 07:10:52;;;;;;;1.90;1.70;;;29.40;40.50;;;33.16;26.03;101102.53;5134819;27;20047;-51
2021/06/17 07:13:17;;;;;;;2.15;1.92;;;29.40;40.50;;;33.16;25.94;101097.13;5154939;27;20038;-47
2021/06/17 07:15:44;;;;;;;1.65;1.55;;;29.40;40.40;;;33.23;26.30;101107.13;5156926;27;20149;-48
2021/06/17 07:18:10;;;;;;;2.03;1.80;;;29.50;40.40;;;33.26;26.12;101099.66;5157060;27;20050;-54
2021/06/17 07:20:37;;;;;;;2.10;1.90;;;29.50;40.40;;;33.29;25.98;101092.03;5156871;27;20046;-46
2021/06/17 07:23:03;;;;;;;2.25;2.05;;;29.50;40.30;;;33.29;26.30;101094.72;5156866;27;20046;-49
2021/06/17 07:25:29;;;;;;;1.55;1.45;;;29.50;40.30;;;33.32;26.12;101097.09;5138169;27;20042;-54
2021/06/17 07:27:55;;;;;;;1.83;1.58;;;29.60;40.30;;;33.36;26.13;101098.47;5156731;27;20502;-50
2021/06/17 07:30:26;;;;;;;1.50;1.40;;;29.60;40.20;;;33.34;25.75;101094.22;5156697;27;20054;-48
2021/06/17 07:32:52;;;;;;;1.50;1.40;;;29.60;40.20;;;33.42;25.70;101096.91;5156915;27;20054;-51
2021/06/17 07:35:18;;;;;;;1.70;1.60;;;29.60;40.10;;;33.44;25.60;101102.16;5156695;27;20111;-51
2021/06/17 07:37:44;;;;;;;1.90;1.80;;;29.70;40.10;;;33.47;25.97;101108.09;5156727;27;20085;-48
2021/06/17 07:40:15;;;;;;;1.88;1.70;;;29.70;40.10;;;33.50;25.65;101106.91;5156483;27;20058;-54
2021/06/17 07:42:41;;;;;;;1.63;1.52;;;29.70;40.10;;;33.51;25.47;101098.56;5157146;27;20053;-51
2021/06/17 07:45:10;;;;;;;1.67;1.58;;;29.70;40.00;;;33.51;25.83;101095.88;5156377;27;20488;-53
2021/06/17 07:47:37;;;;;;;1.70;1.50;;;29.80;40.10;;;33.53;25.52;101103.81;5156787;27;20042;-52
2021/06/17 07:50:06;;;;;;;1.88;1.77;;;29.80;40.00;;;33.54;25.90;101100.13;5156426;27;20046;-51
2021/06/17 07:52:31;;;;;;;1.80;1.67;;;29.80;40.00;;;33.58;25.93;101096.88;5156402;27;20057;-53
2021/06/17 07:54:57;;;;;;;1.60;1.50;;;29.80;40.00;;;33.57;25.81;101097.06;5156326;27;20038;-53
2021/06/17 07:57:23;;;;;;;1.52;1.42;;;29.80;40.00;;;33.57;25.55;101105.19;5156683;27;20428;-54
2021/06/17 07:59:49;;;;;;;1.80;1.70;;;29.80;40.00;;;33.61;25.69;101109.22;5156165;27;20039;-52
2021/06/17 08:02:15;;;;;;;1.70;1.60;;;29.90;40.00;;;33.63;25.59;101109.94;5156415;27;20068;-51
2021/06/17 08:04:40;;;;;;;1.80;1.70;;;29.90;40.00;;;33.63;25.76;101106.34;5156141;27;20051;-48
2021/06/17 08:07:06;;;;;;;1.80;1.70;;;29.90;39.90;;;33.66;25.77;101112.28;5156142;27;20043;-49
2021/06/17 08:09:33;;;;;;;1.70;1.58;;;29.90;39.90;;;33.68;25.84;101113.00;5136858;27;20055;-49
2021/06/17 08:11:59;;;;;;;1.88;1.77;;;29.90;39.90;;;33.68;25.37;101107.56;5155914;27;20083;-52
2021/06/17 08:14:25;;;;;;;1.80;1.55;;;29.90;39.90;;;33.69;25.73;101111.97;5135758;27;20053;-51
2021/06/17 08:16:53;;;;;;;1.98;1.60;;;29.90;39.80;;;33.69;25.58;101106.53;5155894;27;20556;-51
2021/06/17 08:19:26;;;;;;;2.80;1.60;;;29.90;39.80;;;33.68;25.69;101104.88;5155980;27;20141;-48
2021/06/17 08:21:52;;;;;;;8.68;1.83;;;29.90;39.80;;;33.69;25.33;101106.53;5156246;27;20054;-48
2021/06/17 08:24:17;;;;;;;1.65;1.55;;;30.00;39.90;;;33.69;25.44;101103.00;5154999;27;20072;-52
2021/06/17 08:26:43;;;;;;;1.63;1.52;;;30.00;39.90;;;33.67;25.54;101100.41;5155757;27;20055;-50
2021/06/17 08:29:09;;;;;;;1.77;1.67;;;30.00;39.90;;;33.67;25.87;101097.69;5156260;27;20046;-51
2021/06/17 08:31:38;;;;;;;1.73;1.63;;;29.90;39.80;;;33.67;25.37;101089.56;5155639;27;20121;-50
2021/06/17 08:34:04;;;;;;;2.05;1.80;;;29.90;39.80;;;33.66;25.77;101085.16;5136823;27;20043;-52
2021/06/17 08:36:29;;;;;;;1.70;1.60;;;29.90;39.80;;;33.69;25.40;101090.25;5155858;27;20054;-52
2021/06/17 08:38:55;;;;;;;1.88;1.65;;;29.90;39.80;;;33.70;25.55;101085.72;5156183;27;20047;-51
2021/06/17 08:41:21;;;;;;;1.73;1.63;;;30.00;39.90;;;33.69;25.90;101076.72;5155703;27;20051;-54
2021/06/17 08:43:46;;;;;;;1.92;1.83;;;30.00;39.90;;;33.67;25.79;101076.00;5155351;27;20059;-52
2021/06/17 08:46:12;;;;;;;1.48;1.38;;;30.00;39.90;;;33.65;25.88;101080.78;5155959;27;20039;-51
2021/06/17 08:48:40;;;;;;;1.60;1.50;;;30.00;39.90;;;33.63;25.92;101074.69;5155461;27;20046;-49
2021/06/17 08:51:06;;;;;;;1.88;1.70;;;29.90;39.80;;;33.64;25.47;101078.22;5155870;27;20035;-53
2021/06/17 08:53:32;;;;;;;1.80;1.70;;;29.90;39.90;;;33.63;25.42;101079.25;5155499;27;20056;-51
2021/06/17 08:55:57;;;;;;;2.15;1.80;;;29.90;39.90;;;33.61;25.75;101074.00;5155508;27;20046;-48
2021/06/17 08:58:23;;;;;;;2.20;1.85;;;29.90;40.00;;;33.58;25.45;101072.50;5136406;27;20058;-46
2021/06/17 09:00:51;;;;;;;1.65;1.55;;;29.90;39.90;;;33.56;25.85;101073.66;5155353;27;20042;-51
2021/06/17 09:03:19;;;;;;;2.40;1.60;;;29.90;40.00;;;33.53;25.76;101060.44;5155349;27;20588;-51
2021/06/17 09:05:49;;;;;;;1.90;1.80;;;29.90;40.00;;;33.54;25.78;101062.16;5155406;27;20449;-49
2021/06/17 09:08:23;;;;;;;1.90;1.80;;;29.80;40.00;;;33.50;25.77;101050.81;5155617;27;20099;-50
2021/06/17 09:10:50;;;;;;;1.80;1.70;;;29.80;40.00;;;33.50;25.96;101053.53;5155340;27;20091;-51
2021/06/17 09:13:15;;;;;;;1.60;1.50;;;29.80;40.00;;;33.44;25.62;101051.50;5136428;27;20039;-50
2021/06/17 09:15:51;;;;;;;1.60;1.50;;;29.80;40.00;;;33.45;26.01;101055.06;5154993;27;20123;-51
2021/06/17 09:18:39;;;;;;;1.80;1.67;;;29.80;40.10;;;33.40;26.28;101045.59;5155513;27;20447;-51
2021/06/17 09:21:08;;;;;;;2.22;1.80;;;29.80;40.10;;;33.41;25.78;101044.59;5136111;27;20074;-51
2021/06/17 09:23:38;;;;;;;1.70;1.60;;;29.80;40.20;;;33.38;25.88;101049.47;5154803;27;20099;-50
2021/06/17 09:26:23;;;;;;;2.15;2.00;;;29.80;40.20;;;33.34;26.21;101037.31;5136814;27;20042;-51
2021/06/17 09:29:04;;;;;;;2.35;2.15;;;29.70;40.20;;;33.35;26.25;101050.69;5154726;27;20055;-52
2021/06/17 09:31:44;;;;;;;1.83;1.73;;;29.70;40.20;;;33.30;25.96;101035.97;5154846;27;20039;-47
2021/06/17 09:34:11;;;;;;;4.05;2.28;;;29.70;40.30;;;33.30;26.05;101034.09;5155050;27;20107;-48
2021/06/17 09:36:40;;;;;;;2.63;2.00;;;29.70;40.30;;;33.27;25.96;101025.47;5154657;27;20035;-47
2021/06/17 09:39:17;;;;;;;2.20;2.00;;;29.70;40.30;;;33.27;26.24;101025.47;5154802;27;20400;-51
2021/06/17 09:41:51;;;;;;;2.13;1.92;;;29.70;40.90;;;33.27;26.37;101015.47;5136602;27;20103;-54
2021/06/17 09:44:37;;;;;;;2.10;1.90;;;29.70;40.40;;;33.26;26.06;101010.22;5154343;27;20192;-52
2021/06/17 09:47:17;;;;;;;2.33;2.10;;;29.70;40.40;;;33.24;26.27;101011.22;5154794;27;20042;-53
2021/06/17 09:49:45;;;;;;;2.60;2.40;;;29.70;40.40;;;33.24;26.13;101013.94;5154424;27;20051;-52
2021/06/17 09:52:12;;;;;;;2.38;2.17;;;29.70;40.50;;;33.24;26.39;101015.81;5154344;27;20047;-52
2021/06/17 09:54:40;;;;;;;2.60;2.40;;;29.70;40.50;;;33.20;26.49;101017.19;5134846;27;20051;-50
2021/06/17 09:57:10;;;;;;;2.40;2.20;;;29.70;40.60;;;33.22;26.62;101023.28;5154553;27;20073;-52
2021/06/17 09:59:49;;;;;;;2.90;2.57;;;29.70;40.50;;;33.21;26.39;101013.44;5154967;27;20110;-51
2021/06/17 10:02:22;;;;;;;2.60;2.20;;;29.70;40.50;;;33.20;26.51;101023.44;5136167;27;20364;-50
2021/06/17 10:04:48;;;;;;;2.17;2.03;;;29.70;40.50;;;33.22;26.34;101017.88;5135822;27;20046;-50
2021/06/17 10:07:17;;;;;;;5.75;2.83;;;29.70;40.70;;;33.20;26.36;101022.63;5136232;27;20045;-48
2021/06/17 10:09:45;;;;;;;2.45;2.15;;;29.70;40.80;;;33.20;26.49;101011.78;5154943;27;20471;-51
2021/06/17 10:12:11;;;;;;;2.60;2.40;;;29.70;40.70;;;33.20;26.81;101022.63;5154381;27;20051;-48
2021/06/17 10:14:37;;;;;;;2.53;2.33;;;29.70;40.70;;;33.20;26.63;101017.19;5154213;27;20041;-51
2021/06/17 10:17:04;;;;;;;2.45;2.25;;;29.70;40.70;;;33.19;26.37;101019.03;5153887;27;20055;-48
2021/06/17 10:19:34;;;;;;;2.88;2.67;;;29.70;40.70;;;33.17;26.51;101015.66;5153945;27;20046;-49
2021/06/17 10:22:02;;;;;;;4.47;2.72;;;29.60;40.70;;;33.18;26.45;101030.91;5154031;27;20103;-53
2021/06/17 10:24:30;;;;;;;4.30;3.15;;;29.70;40.80;;;33.17;26.55;101018.38;5154460;27;20058;-49